DW7220 Weather Reports


Display with metric or nautical units.
time (UTC)temp
F
wind
direction
speed
MPH
gust
MPH
rain 1hr
in
rain 24hr
in
rain mn
in
humidity
%
barometer
mb
20190418141502 61 71 10.0 18.0 0.00 0.00 0.00 90 1010.3
20190418141006 61 88 10.0 20.0 0.00 0.00 0.00 90 1010.5
20190418140502 61 88 12.0 21.0 0.00 0.00 0.00 90 1010.5
20190418140024 77 101 10.0 18.0 0.00 0.00 0.00 81 1016.3
20190418140001 61 80 14.0 25.0 0.00 0.00 0.00 90 1010.5
20190418135501 61 86 7.0 13.0 0.00 0.00 0.00 90 1010.5
20190418135006 61 89 12.0 18.0 0.00 0.00 0.00 90 1010.4
20190418134617 77 96 10.0 16.0 0.00 0.00 0.00 81 1016.3
20190418134502 62 101 10.0 18.0 0.00 0.00 0.00 90 1010.4
20190418134008 61 87 12.0 20.0 0.00 0.00 0.00 90 1010.4
20190418133501 61 83 12.0 21.0 0.00 0.00 0.00 90 1010.4
20190418133156 77 99 11.0 17.0 0.00 0.00 0.00 79 1016.2
20190418133006 62 78 14.0 22.0 0.00 0.00 0.00 90 1010.3
20190418132502 61 84 13.0 21.0 0.00 0.00 0.00 90 1010.2
20190418132006 61 83 12.0 20.0 0.00 0.00 0.00 90 1010.2
20190418131647 77 111 10.0 14.0 0.00 0.00 0.00 79 1016.3
20190418131501 62 98 13.0 20.0 0.00 0.00 0.00 90 1010.1
20190418131005 62 87 9.0 15.0 0.00 0.00 0.00 90 1010.1
20190418130502 62 86 10.0 20.0 0.00 0.00 0.00 90 1010.1
20190418130020 76 141 6.0 18.0 0.00 0.00 0.00 81 1016.1
20190418130001 62 93 12.0 20.0 0.00 0.00 0.00 90 1010.3
20190418125501 62 82 10.0 21.0 0.00 0.00 0.00 90 1010.2
20190418125006 61 93 9.0 21.0 0.00 0.00 0.00 90 1010.2
20190418124539 76 106 8.0 15.0 0.00 0.00 0.00 80 1016.0
20190418124501 61 74 12.0 20.0 0.00 0.00 0.00 90 1010.2
20190418124006 61 78 10.0 18.0 0.00 0.00 0.00 90 1010.3
20190418123502 61 83 15.0 20.0 0.00 0.00 0.00 90 1010.2
20190418123109 76 132 9.0 15.0 0.00 0.00 0.00 78 1016.1
20190418123006 61 68 10.0 16.0 0.00 0.00 0.00 90 1010.3
20190418122502 61 81 8.0 18.0 0.00 0.00 0.00 90 1010.4
20190418122007 61 70 14.0 21.0 0.00 0.00 0.00 90 1010.3
20190418121641 76 133 6.0 10.0 0.00 0.00 0.00 78 1015.8
20190418121502 61 79 11.0 21.0 0.00 0.00 0.00 90 1010.3
20190418121006 61 73 14.0 23.0 0.00 0.00 0.00 90 1010.1
20190418120502 61 75 16.0 23.0 0.00 0.00 0.00 90 1010.3
20190418120002 61 74 16.0 23.0 0.00 0.00 0.00 90 1010.3
20190418115501 61 74 13.0 21.0 0.00 0.00 0.00 90 1010.4
20190418115006 61 75 11.0 17.0 0.00 0.00 0.00 90 1010.3
20190418114557 74 139 4.0 9.0 0.00 0.00 0.00 79 1015.8
20190418114501 61 67 12.0 20.0 0.00 0.00 0.00 90 1010.2
20190418114006 61 75 13.0 22.0 0.00 0.00 0.00 90 1010.1
20190418113502 61 69 13.0 20.0 0.00 0.00 0.00 90 1010.2
20190418113123 73 134 2.0 4.0 0.00 0.00 0.00 80 1015.7
20190418113006 61 68 8.0 17.0 0.00 0.00 0.00 90 1010.5
20190418112501 61 69 11.0 18.0 0.00 0.00 0.00 90 1010.4
20190418112006 61 80 9.0 16.0 0.00 0.00 0.00 89 1010.7
20190418111553 72 120 1.0 2.0 0.00 0.00 0.00 81 1015.7
20190418111501 61 67 13.0 16.0 0.00 0.00 0.00 89 1010.8
20190418111006 61 76 11.0 20.0 0.00 0.00 0.00 89 1011.0
20190418110501 61 66 13.0 20.0 0.00 0.00 0.00 89 1010.9
20190418110100 72 128 1.0 3.0 0.00 0.00 0.00 80 1015.6
20190418110001 61 66 13.0 20.0 0.00 0.00 0.00 89 1010.7
20190418105501 61 63 12.0 17.0 0.00 0.00 0.00 89 1011.0
20190418105005 61 82 12.0 21.0 0.00 0.00 0.00 89 1011.1
20190418104637 72 105 1.0 4.0 0.00 0.00 0.00 80 1015.6
20190418104501 61 81 14.0 22.0 0.00 0.00 0.00 89 1010.8
20190418104005 61 83 16.0 25.0 0.00 0.00 0.00 88 1010.6
20190418103501 61 74 13.0 20.0 0.00 0.00 0.00 88 1010.7
20190418103121 72 96 3.0 5.0 0.00 0.00 0.00 80 1015.5
20190418103006 61 67 14.0 23.0 0.00 0.00 0.00 88 1011.1
20190418102502 61 65 14.0 22.0 0.00 0.00 0.00 88 1010.8
20190418102006 61 82 13.0 22.0 0.00 0.00 0.00 88 1011.6
20190418101619 73 98 3.0 6.0 0.00 0.00 0.00 79 1015.5
20190418101502 61 79 11.0 26.0 0.00 0.00 0.00 88 1010.5
20190418101006 61 58 17.0 25.0 0.00 0.00 0.00 87 1009.6
20190418100501 61 65 16.0 24.0 0.00 0.00 0.00 87 1010.0
20190418100110 73 92 2.0 7.0 0.00 0.00 0.00 79 1015.5
20190418100001 61 71 16.0 26.0 0.00 0.00 0.00 87 1010.4
20190418095501 61 54 16.0 25.0 0.00 0.00 0.00 87 1010.2
20190418095006 61 54 13.0 20.0 0.00 0.00 0.00 87 1010.2
20190418094706 73 105 4.0 6.0 0.00 0.00 0.00 79 1015.6
20190418094501 61 66 13.0 25.0 0.00 0.00 0.00 87 1010.0
20190418094005 61 61 17.0 26.0 0.00 0.00 0.00 87 1010.3
20190418093502 61 64 12.0 21.0 0.00 0.00 0.00 87 1010.8
20190418093127 73 103 3.0 6.0 0.00 0.00 0.00 77 1015.6
20190418093006 61 67 12.0 21.0 0.00 0.00 0.00 86 1011.4
20190418092502 61 59 14.0 22.0 0.00 0.00 0.00 86 1010.1
20190418092006 61 61 17.0 26.0 0.00 0.00 0.00 86 1010.9
20190418091502 61 69 18.0 28.0 0.00 0.00 0.00 86 1010.7
20190418091006 61 68 15.0 23.0 0.00 0.00 0.00 86 1011.2
20190418090501 61 63 13.0 24.0 0.00 0.00 0.00 86 1010.6
20190418090111 73 125 2.0 7.0 0.00 0.00 0.00 76 1015.6
20190418090002 61 54 13.0 29.0 0.00 0.00 0.00 86 1010.7
20190418085502 61 66 15.0 25.0 0.00 0.00 0.00 86 1011.2
20190418085005 61 61 11.0 20.0 0.00 0.00 0.00 85 1011.3
20190418084627 73 121 3.0 6.0 0.00 0.00 0.00 76 1015.5
20190418084503 61 72 18.0 25.0 0.00 0.00 0.00 85 1011.5
20190418084006 61 74 16.0 28.0 0.00 0.00 0.00 85 1010.9
20190418083501 61 61 13.0 24.0 0.00 0.00 0.00 85 1011.4
20190418083142 73 96 3.0 7.0 0.00 0.00 0.00 75 1015.5
20190418083006 61 44 14.0 26.0 0.00 0.00 0.00 85 1011.0
20190418082501 61 50 15.0 28.0 0.00 0.00 0.00 85 1011.2
20190418082006 61 38 15.0 25.0 0.00 0.00 0.00 85 1011.2
20190418081646 73 131 2.0 5.0 0.00 0.00 0.00 76 1015.6
20190418081501 61 57 15.0 25.0 0.00 0.00 0.00 85 1011.1
20190418081007 61 63 15.0 26.0 0.00 0.00 0.00 84 1010.6
20190418080502 61 69 16.0 23.0 0.00 0.00 0.00 84 1010.6
20190418080134 73 127 4.0 8.0 0.00 0.00 0.00 76 1015.7
20190418080002 61 55 13.0 21.0 0.00 0.00 0.00 84 1010.7
20190418075502 61 57 13.0 22.0 0.00 0.00 0.00 84 1010.9
20190418075006 61 52 12.0 20.0 0.00 0.00 0.00 83 1011.0
20190418074614 72 98 3.0 6.0 0.00 0.00 0.00 78 1015.7
20190418074502 61 56 13.0 22.0 0.00 0.00 0.00 83 1011.4
20190418074006 61 57 10.0 20.0 0.00 0.00 0.00 83 1011.4
20190418073502 61 44 13.0 26.0 0.00 0.00 0.00 82 1011.0
20190418073040 73 119 1.0 4.0 0.00 0.00 0.00 77 1015.8
20190418073006 61 52 15.0 23.0 0.00 0.00 0.00 82 1011.2
20190418072503 61 63 14.0 25.0 0.00 0.00 0.00 82 1010.9
20190418072006 61 38 16.0 24.0 0.00 0.00 0.00 82 1010.2
20190418071622 73 94 3.0 4.0 0.00 0.00 0.00 76 1016.0
20190418071501 61 40 12.0 25.0 0.00 0.00 0.00 82 1010.9
20190418071006 61 33 10.0 15.0 0.00 0.00 0.00 82 1012.2
20190418070502 61 9 5.0 16.0 0.00 0.00 0.00 82 1012.4
20190418070029 73 113 3.0 5.0 0.00 0.00 0.00 75 1016.1
20190418070001 61 44 10.0 21.0 0.00 0.00 0.00 82 1011.1
20190418065501 61 38 14.0 21.0 0.00 0.00 0.00 82 1010.8
20190418065006 60 50 13.0 22.0 0.00 0.00 0.00 82 1010.7
20190418064546 74 94 3.0 9.0 0.00 0.00 0.00 74 1016.2
20190418064501 60 45 11.0 20.0 0.00 0.00 0.00 82 1011.4
20190418064006 60 39 16.0 23.0 0.00 0.00 0.00 82 1010.6
20190418063501 60 38 16.0 22.0 0.00 0.00 0.00 81 1010.9
20190418063114 74 129 3.0 8.0 0.00 0.00 0.00 75 1016.3
20190418063006 60 38 13.0 20.0 0.00 0.00 0.00 81 1011.0
20190418062501 60 44 15.0 20.0 0.00 0.00 0.00 81 1011.7
20190418062007 60 25 10.0 16.0 0.00 0.00 0.00 81 1012.1
20190418061544 74 119 3.0 6.0 0.00 0.00 0.00 76 1016.6
20190418061501 60 8 12.0 16.0 0.00 0.00 0.00 81 1012.4
20190418061006 60 40 11.0 26.0 0.00 0.00 0.00 81 1011.6
20190418060501 60 37 17.0 25.0 0.00 0.00 0.00 80 1011.1
20190418060036 74 91 5.0 9.0 0.00 0.00 0.00 75 1016.9
20190418060002 60 21 11.0 17.0 0.00 0.00 0.00 80 1011.6
20190418055501 60 33 10.0 16.0 0.00 0.00 0.00 80 1011.8
20190418055008 60 43 13.0 21.0 0.00 0.00 0.00 79 1011.0
20190418054522 73 108 2.0 9.0 0.00 0.00 0.00 76 1017.2
20190418054502 60 33 12.0 24.0 0.00 0.00 0.00 79 1011.0
20190418054006 60 36 15.0 21.0 0.00 0.00 0.00 79 1010.9
20190418053501 60 26 13.0 17.0 0.00 0.00 0.00 79 1011.2
20190418053023 73 101 4.0 8.0 0.00 0.00 0.00 76 1017.3
20190418053005 60 37 10.0 20.0 0.00 0.00 0.00 79 1011.2
20190418052501 60 39 17.0 26.0 0.00 0.00 0.00 79 1010.2
20190418052006 60 35 20.0 29.0 0.00 0.00 0.00 79 1010.3
20190418051523 73 117 3.0 6.0 0.00 0.00 0.00 76 1017.4
20190418051502 60 39 16.0 25.0 0.00 0.00 0.00 78 1010.7
20190418051006 60 27 16.0 22.0 0.00 0.00 0.00 79 1010.8
20190418050501 60 36 14.0 20.0 0.00 0.00 0.00 79 1011.0
20190418050025 73 131 4.0 7.0 0.00 0.00 0.00 74 1017.5
20190418050001 60 34 9.0 15.0 0.00 0.00 0.00 79 1011.4
20190418045501 60 23 16.0 24.0 0.00 0.00 0.00 79 1010.9
20190418045005 60 39 15.0 23.0 0.00 0.00 0.00 80 1010.6
20190418044509 74 113 3.0 9.0 0.00 0.00 0.00 73 1017.5
20190418044502 60 35 13.0 22.0 0.00 0.00 0.00 80 1010.8
20190418044006 60 31 13.0 23.0 0.00 0.00 0.00 81 1010.9
20190418043501 59 39 13.0 21.0 0.00 0.00 0.00 81 1011.1
20190418043012 74 134 2.0 8.0 0.00 0.00 0.00 73 1017.6
20190418043006 59 40 12.0 20.0 0.00 0.00 0.00 82 1011.7
20190418042502 59 8 9.0 13.0 0.00 0.00 0.00 82 1011.9
20190418042006 59 36 11.0 21.0 0.00 0.00 0.00 82 1011.0
20190418041502 59 35 14.0 25.0 0.00 0.00 0.00 82 1011.1
20190418041006 59 9 12.0 20.0 0.00 0.00 0.00 83 1011.6
20190418040502 59 7 16.0 24.0 0.00 0.00 0.00 83 1011.1
20190418040125 74 101 6.0 12.0 0.00 0.00 0.00 75 1017.6
20190418040001 59 18 18.0 32.0 0.00 0.00 0.00 83 1009.9
20190418035502 59 30 17.0 26.0 0.00 0.00 0.00 83 1010.0
20190418035006 59 32 16.0 24.0 0.00 0.00 0.00 82 1010.6
20190418034720 74 85 6.0 11.0 0.00 0.00 0.00 74 1017.7
20190418034501 59 33 18.0 23.0 0.00 0.00 0.00 82 1010.8
20190418034006 59 24 16.0 21.0 0.00 0.00 0.00 83 1011.4
20190418033502 59 16 17.0 24.0 0.00 0.00 0.00 83 1011.3
20190418033214 74 122 4.0 13.0 0.00 0.00 0.00 74 1017.7
20190418033006 59 19 12.0 20.0 0.00 0.00 0.00 83 1011.5
20190418032502 59 25 12.0 20.0 0.00 0.00 0.00 83 1011.7
20190418032005 59 20 13.0 20.0 0.00 0.00 0.00 83 1011.5
20190418031643 74 106 8.0 11.0 0.00 0.00 0.00 75 1017.7
20190418031502 59 30 14.0 20.0 0.00 0.00 0.00 83 1011.4
20190418031006 59 30 12.0 20.0 0.00 0.00 0.00 83 1011.8
20190418030502 59 28 10.0 20.0 0.00 0.00 0.00 83 1012.2
20190418030206 74 122 5.0 12.0 0.00 0.00 0.00 75 1017.8
20190418030003 59 12 13.0 20.0 0.00 0.00 0.00 83 1011.9
20190418025502 59 32 14.0 21.0 0.00 0.00 0.00 83 1012.0
20190418025006 59 25 12.0 18.0 0.00 0.00 0.00 83 1011.9
20190418024819 74 124 5.0 11.0 0.00 0.00 0.00 75 1017.8
20190418024502 59 25 11.0 20.0 0.00 0.00 0.00 83 1012.0
20190418024006 59 34 10.0 18.0 0.00 0.00 0.00 83 1011.9
20190418023501 59 32 12.0 22.0 0.00 0.00 0.00 83 1011.7
20190418023150 74 120 4.0 9.0 0.00 0.00 0.00 75 1017.8
20190418023006 59 35 14.0 25.0 0.00 0.00 0.00 83 1011.5
20190418022502 59 34 13.0 22.0 0.00 0.00 0.00 83 1011.5
20190418022006 59 38 15.0 26.0 0.00 0.00 0.00 83 1011.3
20190418021646 75 121 5.0 11.0 0.00 0.00 0.00 73 1017.7
20190418021501 59 32 20.0 28.0 0.00 0.00 0.00 83 1011.3
20190418021005 59 23 17.0 25.0 0.00 0.00 0.00 83 1011.5
20190418020501 59 36 13.0 23.0 0.00 0.00 0.00 83 1011.6
20190418020153 75 99 6.0 12.0 0.00 0.00 0.00 77 1017.7
20190418020002 59 33 14.0 26.0 0.00 0.00 0.00 83 1011.8
20190418015502 59 26 12.0 23.0 0.00 0.00 0.00 82 1012.1
20190418015006 59 28 12.0 23.0 0.00 0.00 0.00 82 1012.3
20190418014624 75 90 5.0 9.0 0.00 0.00 0.00 76 1017.7
20190418014502 59 16 17.0 23.0 0.00 0.00 0.00 83 1012.3
20190418014006 59 17 13.0 24.0 0.00 0.00 0.00 83 1012.3
20190418013504 59 21 14.0 24.0 0.00 0.00 0.00 83 1012.4
20190418013147 74 84 4.0 12.0 0.00 0.00 0.00 76 1017.7
20190418013008 59 25 13.0 20.0 0.00 0.00 0.00 83 1012.6
20190418012501 59 15 12.0 18.0 0.00 0.00 0.00 83 1012.7
20190418012006 59 13 13.0 18.0 0.00 0.00 0.00 84 1012.8
20190418011638 75 126 4.0 8.0 0.00 0.00 0.00 76 1017.5
20190418011502 59 21 12.0 20.0 0.00 0.00 0.00 84 1013.0
20190418011006 59 18 12.0 18.0 0.00 0.00 0.00 84 1013.1
20190418010501 59 11 14.0 23.0 0.00 0.00 0.00 85 1012.8
20190418010157 74 126 3.0 6.0 0.00 0.00 0.00 77 1017.5
20190418010001 59 14 16.0 20.0 0.00 0.00 0.00 85 1012.9
20190418005501 59 11 13.0 20.0 0.00 0.00 0.00 85 1013.3
20190418005007 59 5 11.0 18.0 0.00 0.00 0.00 85 1013.2
20190418004820 74 93 4.0 9.0 0.00 0.00 0.00 76 1017.3
20190418004501 59 33 12.0 17.0 0.00 0.00 0.00 85 1012.7
20190418004006 59 26 12.0 20.0 0.00 0.00 0.00 86 1012.7
20190418003501 59 33 12.0 21.0 0.00 0.00 0.00 86 1012.3
20190418003136 74 110 5.0 9.0 0.00 0.00 0.00 76 1017.2
20190418003006 59 37 12.0 24.0 0.00 0.00 0.00 86 1012.0
20190418002501 59 40 17.0 26.0 0.00 0.00 0.00 86 1012.0
20190418002007 59 44 12.0 20.0 0.00 0.00 0.00 86 1012.5
20190418001614 75 89 5.0 9.0 0.00 0.00 0.00 76 1017.0
20190418001501 59 41 13.0 18.0 0.00 0.00 0.00 86 1013.2
20190418001006 59 33 10.0 16.0 0.00 0.00 0.00 86 1013.5
20190418000502 59 36 11.0 21.0 0.00 0.00 0.00 86 1013.2
20190418000131 75 104 4.0 8.0 0.00 0.00 0.00 75 1017.1
20190418000001 59 38 16.0 28.0 0.00 0.00 0.00 85 1012.8
20190417235502 59 39 16.0 23.0 0.00 0.00 0.00 86 1013.0
20190417235006 59 40 10.0 20.0 0.00 0.00 0.00 86 1013.5
20190417234627 75 74 6.0 10.0 0.00 0.00 0.00 75 1017.1
20190417234502 59 52 12.0 21.0 0.00 0.00 0.00 86 1013.4
20190417234006 59 37 12.0 17.0 0.00 0.00 0.00 86 1013.3
20190417233502 59 52 8.0 14.0 0.00 0.00 0.00 86 1013.5
20190417233112 75 58 5.0 10.0 0.00 0.00 0.00 74 1017.2
20190417233006 59 56 10.0 14.0 0.00 0.00 0.00 86 1013.8
20190417232502 59 43 6.0 12.0 0.00 0.00 0.00 86 1014.0
20190417232006 59 40 10.0 15.0 0.00 0.00 0.00 86 1014.0
20190417231640 76 72 5.0 10.0 0.00 0.00 0.00 72 1017.1
20190417231502 59 30 10.0 15.0 0.00 0.00 0.00 86 1013.8
20190417231007 59 38 13.0 22.0 0.00 0.00 0.00 86 1013.7
20190417230501 59 41 11.0 21.0 0.00 0.00 0.00 86 1013.7
20190417230154 76 77 5.0 10.0 0.00 0.00 0.00 69 1017.0
20190417230001 59 42 14.0 22.0 0.00 0.00 0.00 87 1013.8
20190417225502 59 45 9.0 20.0 0.00 0.00 0.00 87 1014.0
20190417225006 59 42 12.0 23.0 0.00 0.00 0.00 87 1013.8
20190417224737 76 68 3.0 12.0 0.00 0.00 0.00 70 1017.1
20190417224502 59 33 12.0 20.0 0.00 0.00 0.00 87 1013.8
20190417224009 60 55 10.0 18.0 0.00 0.00 0.00 87 1013.8
20190417223501 59 65 13.0 18.0 0.00 0.00 0.00 87 1013.9
20190417223125 76 114 8.0 12.0 0.00 0.00 0.00 69 1017.1
20190417223006 59 61 9.0 15.0 0.00 0.00 0.00 87 1013.9
20190417222502 60 62 7.0 15.0 0.00 0.00 0.00 86 1013.9
20190417222006 60 36 10.0 20.0 0.00 0.00 0.00 86 1013.8
20190417221643 76 108 3.0 9.0 0.00 0.00 0.00 69 1017.0
20190417221502 59 65 12.0 17.0 0.00 0.00 0.00 86 1013.7
20190417221006 59 59 13.0 20.0 0.00 0.00 0.00 86 1013.5
20190417220502 59 55 9.0 12.0 0.00 0.00 0.00 86 1013.5
20190417220139 77 70 4.0 12.0 0.00 0.00 0.00 68 1017.0
20190417220001 59 54 8.0 16.0 0.00 0.00 0.00 86 1013.4
20190417215502 59 50 7.0 17.0 0.00 0.00 0.00 86 1013.3
20190417215006 59 43 11.0 18.0 0.00 0.00 0.00 86 1013.0
20190417214628 77 74 5.0 13.0 0.00 0.00 0.00 66 1017.1
20190417214501 59 53 13.0 20.0 0.00 0.00 0.00 87 1012.9
20190417214006 59 55 11.0 20.0 0.00 0.00 0.00 87 1013.1
20190417213501 59 46 12.0 21.0 0.00 0.00 0.00 87 1013.0
20190417213141 77 115 5.0 11.0 0.00 0.00 0.00 66 1017.0
20190417213006 59 61 12.0 18.0 0.00 0.00 0.00 87 1013.1
20190417212501 59 47 10.0 15.0 0.00 0.00 0.00 87 1013.2
20190417212006 59 45 10.0 15.0 0.00 0.00 0.00 87 1013.4
20190417211754 78 53 6.0 13.0 0.00 0.00 0.00 66 1017.0
20190417211501 60 55 10.0 18.0 0.00 0.00 0.00 87 1013.6
20190417211006 59 44 12.0 20.0 0.00 0.00 0.00 87 1013.7
20190417210502 60 51 10.0 18.0 0.00 0.00 0.00 87 1013.8
20190417210115 78 101 7.0 13.0 0.00 0.00 0.00 63 1017.1
20190417210002 60 55 9.0 18.0 0.00 0.00 0.00 87 1013.9
20190417205502 60 57 13.0 22.0 0.00 0.00 0.00 87 1014.0
20190417205006 60 46 8.0 15.0 0.00 0.00 0.00 87 1014.1
20190417204555 78 44 7.0 13.0 0.00 0.00 0.00 66 1017.2
20190417204502 60 59 11.0 18.0 0.00 0.00 0.00 87 1014.1
20190417204006 60 42 10.0 16.0 0.00 0.00 0.00 87 1014.1
20190417203502 60 67 13.0 20.0 0.00 0.00 0.00 87 1014.1
20190417203133 78 82 6.0 11.0 0.00 0.00 0.00 65 1017.4
20190417203006 60 70 11.0 16.0 0.00 0.00 0.00 87 1014.0
20190417202501 60 65 10.0 17.0 0.00 0.00 0.00 87 1013.9
20190417202057 60 59 13.0 20.0 0.00 0.00 0.00 87 1013.9
20190417201609 78 98 9.0 14.0 0.00 0.00 0.00 63 1017.6
20190417201502 60 49 10.0 18.0 0.00 0.00 0.00 87 1013.9
20190417201006 60 60 12.0 17.0 0.00 0.00 0.00 86 1014.0
20190417200502 60 69 10.0 15.0 0.00 0.00 0.00 86 1014.0
20190417200103 78 118 6.0 11.0 0.00 0.00 0.00 61 1017.8
20190417200002 60 60 10.0 15.0 0.00 0.00 0.00 86 1014.1
20190417195502 60 70 10.0 14.0 0.00 0.00 0.00 86 1014.1
20190417195006 60 69 11.0 17.0 0.00 0.00 0.00 86 1014.0
20190417194621 78 86 6.0 12.0 0.00 0.00 0.00 62 1018.0
20190417194502 60 72 11.0 16.0 0.00 0.00 0.00 86 1014.0
20190417194007 60 64 12.0 20.0 0.00 0.00 0.00 86 1014.0
20190417193502 60 61 13.0 20.0 0.00 0.00 0.00 85 1014.0
20190417193118 78 78 8.0 12.0 0.00 0.00 0.00 63 1018.2
20190417193006 60 68 9.0 20.0 0.00 0.00 0.00 85 1014.0
20190417192502 60 71 8.0 16.0 0.00 0.00 0.00 85 1014.1
20190417192006 60 61 12.0 17.0 0.00 0.00 0.00 85 1014.0
20190417191554 78 77 8.0 14.0 0.00 0.00 0.00 63 1018.3
20190417191502 60 68 10.0 17.0 0.00 0.00 0.00 85 1014.0
20190417191006 60 58 12.0 18.0 0.00 0.00 0.00 85 1013.9
20190417190502 60 68 11.0 17.0 0.00 0.00 0.00 84 1014.0
20190417190115 78 105 7.0 15.0 0.00 0.00 0.00 62 1018.6
20190417190002 60 65 11.0 14.0 0.00 0.00 0.00 84 1014.1
20190417185501 60 74 12.0 16.0 0.00 0.00 0.00 84 1014.0
20190417185006 60 66 9.0 16.0 0.00 0.00 0.00 84 1014.0
20190417184615 78 84 5.0 12.0 0.00 0.00 0.00 64 1018.8
20190417184501 60 74 9.0 15.0 0.00 0.00 0.00 84 1014.1
20190417184005 60 74 10.0 17.0 0.00 0.00 0.00 84 1014.1
20190417183502 60 65 9.0 16.0 0.00 0.00 0.00 84 1014.1
20190417183101 78 25 9.0 15.0 0.00 0.00 0.00 65 1019.0
20190417183006 60 76 10.0 15.0 0.00 0.00 0.00 84 1014.1
20190417182502 60 65 13.0 17.0 0.00 0.00 0.00 83 1014.1
20190417182007 60 55 10.0 16.0 0.00 0.00 0.00 83 1014.1
20190417181554 79 70 5.0 14.0 0.00 0.00 0.00 64 1019.1
20190417181501 60 62 9.0 16.0 0.00 0.00 0.00 83 1014.0
20190417181006 60 67 11.0 17.0 0.00 0.00 0.00 83 1014.1
20190417180502 61 57 7.0 14.0 0.00 0.00 0.00 83 1014.2
20190417180111 78 84 6.0 12.0 0.00 0.00 0.00 61 1019.2
20190417180001 61 72 9.0 13.0 0.00 0.00 0.00 83 1014.2
20190417175501 61 77 9.0 13.0 0.00 0.00 0.00 83 1014.1
20190417175006 61 73 6.0 15.0 0.00 0.00 0.00 83 1014.1
20190417174612 79 36 8.0 13.0 0.00 0.00 0.00 60 1019.3
20190417174502 61 79 11.0 15.0 0.00 0.00 0.00 83 1014.1
20190417174006 61 70 10.0 15.0 0.00 0.00 0.00 82 1014.0
20190417173501 61 66 8.0 14.0 0.00 0.00 0.00 82 1014.1
20190417173107 78 84 7.0 0.0 0.00 0.00 0.00 63 1019.5
20190417173006 61 69 10.0 15.0 0.00 0.00 0.00 82 1014.1
20190417172501 61 75 9.0 17.0 0.00 0.00 0.00 82 1014.1
20190417172006 61 77 7.0 15.0 0.00 0.00 0.00 82 1014.1
20190417171641 78 91 5.0 11.0 0.00 0.00 0.00 63 1019.4
20190417171504 61 80 9.0 14.0 0.00 0.00 0.00 81 1014.2
20190417171006 61 80 11.0 14.0 0.00 0.00 0.00 81 1014.2
20190417170502 61 71 11.0 16.0 0.00 0.00 0.00 81 1014.3
20190417170051 79 101 5.0 12.0 0.00 0.00 0.00 63 1019.7
20190417170002 61 70 7.0 12.0 0.00 0.00 0.00 81 1014.3
20190417165501 61 86 7.0 13.0 0.00 0.00 0.00 82 1014.2
20190417165006 61 71 11.0 15.0 0.00 0.00 0.00 81 1014.3
20190417164537 78 92 6.0 11.0 0.00 0.00 0.00 61 1019.8
20190417164502 61 76 10.0 15.0 0.00 0.00 0.00 81 1014.2
20190417164007 61 83 8.0 12.0 0.00 0.00 0.00 81 1014.2
20190417163502 61 82 11.0 15.0 0.00 0.00 0.00 81 1014.2
20190417163114 77 70 7.0 13.0 0.00 0.00 0.00 65 1019.9
20190417163029 61 72 10.0 14.0 0.00 0.00 0.00 80 1014.3
20190417162502 61 71 7.0 15.0 0.00 0.00 0.00 80 1014.3
20190417162006 61 70 7.0 16.0 0.00 0.00 0.00 81 1014.3
20190417161559 77 84 7.0 11.0 0.00 0.00 0.00 63 1020.0
20190417161501 61 75 9.0 13.0 0.00 0.00 0.00 80 1014.3
20190417161006 61 75 10.0 15.0 0.00 0.00 0.00 80 1014.3
20190417160502 61 77 10.0 15.0 0.00 0.00 0.00 80 1014.4
20190417160109 78 108 7.0 15.0 0.00 0.00 0.00 62 1020.1
20190417160001 61 71 12.0 16.0 0.00 0.00 0.00 80 1014.3
20190417155501 62 71 10.0 14.0 0.00 0.00 0.00 79 1014.5
20190417155007 61 62 10.0 15.0 0.00 0.00 0.00 80 1014.5
20190417154528 78 27 5.0 13.0 0.00 0.00 0.00 64 1020.1
20190417154502 61 65 10.0 16.0 0.00 0.00 0.00 80 1014.5
20190417154006 62 62 10.0 15.0 0.00 0.00 0.00 79 1014.5
20190417153501 62 66 9.0 13.0 0.00 0.00 0.00 79 1014.5
20190417153051 78 89 6.0 13.0 0.00 0.00 0.00 62 1020.1
20190417153006 62 75 9.0 14.0 0.00 0.00 0.00 79 1014.5
20190417152502 62 79 8.0 12.0 0.00 0.00 0.00 79 1014.5
20190417152006 62 73 10.0 13.0 0.00 0.00 0.00 78 1014.6
20190417151613 78 88 6.0 11.0 0.00 0.00 0.00 60 1020.3
20190417151502 62 77 7.0 13.0 0.00 0.00 0.00 78 1014.7
20190417151006 62 79 7.0 12.0 0.00 0.00 0.00 79 1014.6
20190417150501 62 68 11.0 14.0 0.00 0.00 0.00 78 1014.7
20190417150051 78 94 4.0 14.0 0.00 0.00 0.00 61 1020.4
20190417150001 61 73 10.0 16.0 0.00 0.00 0.00 79 1014.7
20190417145501 62 75 12.0 16.0 0.00 0.00 0.00 79 1014.8
20190417145006 62 74 10.0 15.0 0.00 0.00 0.00 79 1014.7
20190417144523 78 32 6.0 11.0 0.00 0.00 0.00 61 1020.3
20190417144502 62 72 12.0 16.0 0.00 0.00 0.00 79 1014.8
20190417144006 62 56 9.0 17.0 0.00 0.00 0.00 79 1014.9
20190417143501 62 60 9.0 14.0 0.00 0.00 0.00 79 1014.9
20190417143026 77 56 5.0 9.0 0.00 0.00 0.00 62 1020.1
20190417143006 62 82 12.0 16.0 0.00 0.00 0.00 78 1015.0
20190417142501 62 74 9.0 15.0 0.00 0.00 0.00 78 1015.1
20190417142005 62 84 13.0 17.0 0.00 0.00 0.00 77 1015.3